Time;durP1;ratioP1;P1;durP2;ratioP2;P2;SDS_P1;SDS_P2;PMS_P1;PMS_P2;Temp;Humidity;BMP_temperature;BMP_pressure;BME280_temperature;BME280_humidity;BME280_pressure;Samples;Min_cycle;Max_cycle;Signal;HPM_P1;HPM_P2
2022/01/31 00:01:46;;;;;;;81.57;9.90;;;5.20;99.90;;;;;;5013962;28;20029;-75
2022/01/31 00:04:11;;;;;;;84.72;10.23;;;5.10;99.90;;;;;;5013750;28;20026;-72
2022/01/31 00:06:37;;;;;;;90.90;10.00;;;5.10;99.90;;;;;;5013334;28;20033;-74
2022/01/31 00:09:03;;;;;;;71.45;9.43;;;5.10;99.90;;;;;;5013506;28;20052;-74
2022/01/31 00:11:29;;;;;;;77.70;9.32;;;5.20;99.90;;;;;;4995651;28;20026;-74
2022/01/31 00:14:10;;;;;;;77.75;10.73;;;5.10;99.90;;;;;;5013417;28;20464;-74
2022/01/31 00:16:36;;;;;;;87.38;10.18;;;5.10;99.90;;;;;;5014297;28;20056;-73
2022/01/31 00:19:02;;;;;;;77.82;10.43;;;5.10;99.90;;;;;;5014865;28;20022;-74
2022/01/31 00:21:28;;;;;;;90.30;10.05;;;5.20;99.90;;;;;;5014304;28;20108;-75
2022/01/31 00:23:54;;;;;;;77.63;11.27;;;5.20;99.90;;;;;;5020338;28;20026;-74
2022/01/31 00:26:19;;;;;;;90.68;10.98;;;5.20;99.90;;;;;;5001455;28;20040;-75
2022/01/31 00:28:45;;;;;;;74.65;10.95;;;5.30;99.90;;;;;;5013620;28;20034;-76
2022/01/31 00:31:11;;;;;;;87.85;10.30;;;5.30;99.90;;;;;;5013663;28;20025;-73
2022/01/31 00:33:36;;;;;;;83.43;9.60;;;5.20;99.90;;;;;;5014021;28;20025;-74
2022/01/31 00:36:02;;;;;;;82.90;9.95;;;5.20;99.90;;;;;;5016397;28;20030;-75
2022/01/31 00:38:27;;;;;;;82.80;9.02;;;5.20;99.90;;;;;;5018324;28;20424;-75
2022/01/31 00:40:53;;;;;;;88.72;10.20;;;5.10;99.90;;;;;;5018260;28;20036;-75
2022/01/31 00:43:20;;;;;;;86.85;12.68;;;5.20;99.90;;;;;;5014025;28;20060;-75
2022/01/31 00:46:01;;;;;;;82.22;10.32;;;5.10;99.90;;;;;;5036499;22;20014;-77
2022/01/31 00:48:29;;;;;;;78.30;9.05;;;5.10;99.90;;;;;;5035505;28;20032;-78
2022/01/31 00:50:54;;;;;;;62.88;7.97;;;5.10;99.90;;;;;;5035394;28;20025;-78
2022/01/31 00:53:20;;;;;;;71.03;8.75;;;5.00;99.90;;;;;;5035730;28;20026;-78
2022/01/31 00:55:45;;;;;;;98.53;9.30;;;5.10;99.90;;;;;;5031916;28;20030;-79
2022/01/31 00:58:11;;;;;;;73.38;8.70;;;5.00;99.90;;;;;;5014875;28;20410;-78
2022/01/31 01:00:36;;;;;;;70.32;11.63;;;4.90;99.90;;;;;;5014804;28;20033;-78
2022/01/31 01:03:03;;;;;;;84.80;10.55;;;4.90;99.90;;;;;;5015876;28;20041;-79
2022/01/31 01:05:29;;;;;;;96.15;9.88;;;4.90;99.90;;;;;;4996886;28;20026;-78
2022/01/31 01:07:55;;;;;;;85.50;8.75;;;4.90;99.90;;;;;;5015075;28;20096;-78
2022/01/31 01:10:20;;;;;;;74.80;9.15;;;4.90;99.90;;;;;;5016157;28;20034;-79
2022/01/31 01:12:46;;;;;;;89.53;9.05;;;5.00;99.90;;;;;;5015710;28;20518;-79
2022/01/31 01:15:13;;;;;;;86.25;8.65;;;5.00;99.90;;;;;;4997084;28;20026;-77
2022/01/31 01:17:39;;;;;;;89.03;10.48;;;5.00;99.90;;;;;;4996243;28;20026;-78
2022/01/31 01:20:05;;;;;;;84.38;9.10;;;5.00;99.90;;;;;;4996206;28;20026;-78
2022/01/31 01:22:32;;;;;;;91.22;9.73;;;4.90;99.90;;;;;;4997036;28;20033;-78
2022/01/31 01:24:58;;;;;;;84.40;10.50;;;5.00;99.90;;;;;;5015480;28;20505;-79
2022/01/31 01:27:24;;;;;;;102.22;11.65;;;5.00;99.90;;;;;;5014386;28;20021;-78
2022/01/31 01:29:49;;;;;;;75.63;8.80;;;4.90;99.90;;;;;;5014646;28;20383;-79
2022/01/31 01:32:16;;;;;;;82.47;10.20;;;4.90;99.90;;;;;;4997713;28;20068;-80
2022/01/31 01:34:43;;;;;;;76.80;8.63;;;5.00;99.90;;;;;;4997849;28;20025;-79
2022/01/31 01:37:09;;;;;;;87.43;11.82;;;4.90;99.90;;;;;;5016134;28;20037;-77
2022/01/31 01:39:34;;;;;;;83.32;10.65;;;4.90;99.90;;;;;;5015243;28;20030;-79
2022/01/31 01:42:00;;;;;;;75.97;9.55;;;4.90;99.90;;;;;;5016317;28;20770;-78
2022/01/31 01:44:46;;;;;;;87.15;9.88;;;4.80;99.90;;;;;;5015395;28;20026;-78
2022/01/31 01:47:16;;;;;;;73.28;9.05;;;4.80;99.90;;;;;;4995704;28;20033;-78
2022/01/31 01:49:42;;;;;;;73.47;9.65;;;4.70;99.90;;;;;;5003167;28;20022;-77
2022/01/31 01:52:08;;;;;;;80.72;8.93;;;4.70;99.90;;;;;;5024937;28;20044;-77
2022/01/31 01:54:33;;;;;;;87.80;10.57;;;4.70;99.90;;;;;;5024820;28;20454;-77
2022/01/31 01:56:59;;;;;;;76.40;8.88;;;4.70;99.90;;;;;;5007378;28;20030;-76
2022/01/31 01:59:25;;;;;;;75.03;8.85;;;4.80;99.90;;;;;;5023631;28;20054;-78
2022/01/31 02:01:51;;;;;;;80.97;9.63;;;4.80;99.90;;;;;;5017955;28;20026;-77
2022/01/31 02:04:16;;;;;;;77.72;9.00;;;4.70;99.90;;;;;;5020351;28;20076;-79
2022/01/31 02:06:43;;;;;;;84.97;9.90;;;4.70;99.90;;;;;;5020065;28;20087;-78
2022/01/31 02:09:08;;;;;;;70.10;9.88;;;4.80;99.90;;;;;;5020243;28;20037;-80
2022/01/31 02:11:34;;;;;;;87.32;10.05;;;4.90;99.90;;;;;;5002377;28;20030;-80
2022/01/31 02:14:00;;;;;;;93.63;9.82;;;4.80;99.90;;;;;;5002086;28;20026;-78
2022/01/31 02:16:26;;;;;;;76.40;9.75;;;4.80;99.90;;;;;;5019517;28;20030;-80
2022/01/31 02:18:53;;;;;;;84.15;9.65;;;4.70;99.90;;;;;;5019265;28;20072;-78
2022/01/31 02:21:19;;;;;;;74.38;9.25;;;4.70;99.90;;;;;;5018477;28;20018;-79
2022/01/31 02:23:45;;;;;;;66.13;9.18;;;4.70;99.90;;;;;;5001990;28;20498;-79
2022/01/31 02:26:10;;;;;;;70.65;9.05;;;4.70;99.90;;;;;;5018635;28;20514;-78
2022/01/31 02:28:38;;;;;;;74.35;9.18;;;4.70;99.90;;;;;;5017886;28;20026;-79
2022/01/31 02:31:05;;;;;;;75.88;9.05;;;4.70;99.90;;;;;;5000811;28;20030;-78
2022/01/31 02:33:31;;;;;;;88.35;9.50;;;4.80;99.90;;;;;;5000047;28;20124;-78
2022/01/31 02:36:03;;;;;;;72.78;8.65;;;4.90;99.90;;;;;;5018874;28;20041;-79
2022/01/31 02:38:30;;;;;;;74.57;9.55;;;4.80;99.90;;;;;;5000898;28;20164;-77
2022/01/31 02:40:56;;;;;;;62.15;8.15;;;4.80;99.90;;;;;;5019402;28;20025;-78
2022/01/31 02:43:27;;;;;;;85.68;9.90;;;4.90;99.90;;;;;;5021189;28;20085;-79
2022/01/31 02:45:53;;;;;;;70.57;8.32;;;4.90;99.90;;;;;;5031793;28;20030;-78
2022/01/31 02:48:22;;;;;;;89.53;9.82;;;4.90;99.90;;;;;;5028926;28;20118;-77
2022/01/31 02:50:48;;;;;;;90.35;8.90;;;4.90;99.90;;;;;;5028245;28;20093;-77
2022/01/31 02:53:24;;;;;;;68.93;8.40;;;4.90;99.90;;;;;;5007805;28;20124;-80
2022/01/31 02:55:50;;;;;;;75.90;8.55;;;4.80;99.90;;;;;;5006466;28;20033;-80
2022/01/31 02:58:16;;;;;;;54.97;9.50;;;4.80;99.90;;;;;;5025698;28;20049;-78
2022/01/31 03:00:42;;;;;;;72.93;9.05;;;4.70;99.90;;;;;;5034777;28;20117;-79
2022/01/31 03:03:08;;;;;;;70.40;9.90;;;4.60;99.90;;;;;;5033282;28;20045;-77
2022/01/31 03:05:34;;;;;;;81.07;8.95;;;4.60;99.90;;;;;;5020346;28;20032;-76
2022/01/31 03:08:00;;;;;;;54.03;8.27;;;4.40;99.90;;;;;;5020219;28;20022;-77
2022/01/31 03:10:27;;;;;;;67.60;8.35;;;4.30;99.90;;;;;;5017321;28;20108;-78
2022/01/31 03:12:52;;;;;;;70.95;8.68;;;4.30;99.90;;;;;;5000004;28;20030;-77
2022/01/31 03:15:18;;;;;;;62.70;8.57;;;4.30;99.90;;;;;;5000251;28;20033;-77
2022/01/31 03:17:47;;;;;;;85.07;10.05;;;4.30;99.90;;;;;;5017717;28;20035;-77
2022/01/31 03:20:17;;;;;;;68.22;8.18;;;4.30;99.90;;;;;;5017337;28;20046;-77
2022/01/31 03:22:43;;;;;;;51.20;8.00;;;4.30;99.90;;;;;;5000238;28;20048;-78
2022/01/31 03:25:08;;;;;;;77.45;8.30;;;4.30;99.90;;;;;;5016542;28;20467;-76
2022/01/31 03:27:34;;;;;;;71.55;8.98;;;4.30;99.90;;;;;;5016026;28;20037;-76
2022/01/31 03:30:00;;;;;;;68.30;9.32;;;4.30;99.90;;;;;;5015757;28;20041;-77
2022/01/31 03:32:25;;;;;;;70.45;10.10;;;4.30;99.90;;;;;;5016942;28;20383;-78
2022/01/31 03:34:51;;;;;;;74.05;9.15;;;4.30;99.90;;;;;;5018287;28;20383;-78
2022/01/31 03:37:16;;;;;;;59.03;8.13;;;4.30;99.90;;;;;;5016709;28;20021;-75
2022/01/31 03:39:42;;;;;;;70.55;8.55;;;4.30;99.90;;;;;;5017579;28;20120;-76
2022/01/31 03:42:07;;;;;;;68.28;8.27;;;4.30;99.90;;;;;;5050033;28;20033;-76
2022/01/31 03:44:33;;;;;;;53.72;7.80;;;4.30;99.90;;;;;;5016250;28;20033;-78
2022/01/31 03:46:59;;;;;;;65.38;9.77;;;4.40;99.90;;;;;;4999841;28;20036;-77
2022/01/31 03:49:25;;;;;;;71.05;9.85;;;4.30;99.90;;;;;;4999444;28;20348;-77
2022/01/31 03:51:50;;;;;;;72.10;8.18;;;4.30;99.90;;;;;;5020635;28;20038;-79
2022/01/31 03:54:16;;;;;;;73.55;8.57;;;4.30;99.90;;;;;;5020427;28;20033;-79
2022/01/31 03:56:42;;;;;;;66.25;8.07;;;4.40;99.90;;;;;;5020522;28;20061;-80
2022/01/31 03:59:08;;;;;;;65.18;9.18;;;4.40;99.90;;;;;;5019991;28;20438;-79
2022/01/31 04:01:34;;;;;;;59.85;8.50;;;4.40;99.90;;;;;;5003698;28;20030;-79
2022/01/31 04:03:59;;;;;;;79.38;9.63;;;4.40;99.90;;;;;;5020858;28;20084;-79
2022/01/31 04:06:25;;;;;;;71.35;9.20;;;4.50;99.90;;;;;;5020888;28;20026;-76
2022/01/31 04:08:51;;;;;;;58.22;7.88;;;4.50;99.90;;;;;;5001878;28;20052;-78
2022/01/31 04:11:17;;;;;;;58.10;8.15;;;4.50;99.90;;;;;;5020566;28;20360;-78
2022/01/31 04:13:42;;;;;;;57.05;7.40;;;4.50;99.90;;;;;;5021868;28;20044;-78
2022/01/31 04:16:08;;;;;;;53.28;8.50;;;4.60;99.90;;;;;;5017611;28;20450;-76
2022/01/31 04:18:33;;;;;;;51.45;7.72;;;4.60;99.90;;;;;;4997144;28;20026;-76
2022/01/31 04:21:00;;;;;;;51.25;8.32;;;4.50;99.90;;;;;;5014727;28;20470;-75
2022/01/31 04:23:28;;;;;;;72.15;10.13;;;4.50;99.90;;;;;;5015369;28;20021;-75
2022/01/31 04:26:01;;;;;;;50.25;7.88;;;4.50;99.90;;;;;;5002238;28;20018;-75
2022/01/31 04:28:42;;;;;;;56.65;8.05;;;4.40;99.90;;;;;;5015881;28;20022;-76
2022/01/31 04:33:37;;;;;;;54.47;8.63;;;4.40;99.90;;;;;;5015249;28;20022;-76
2022/01/31 04:36:03;;;;;;;56.80;8.77;;;4.40;99.90;;;;;;5014409;28;20022;-76
2022/01/31 04:38:29;;;;;;;52.58;7.78;;;4.50;99.90;;;;;;5015473;28;20029;-76
2022/01/31 04:40:54;;;;;;;62.58;8.55;;;4.50;99.90;;;;;;4998160;28;20398;-76
2022/01/31 04:43:20;;;;;;;50.70;7.80;;;4.60;99.90;;;;;;4997990;28;20071;-77
2022/01/31 04:45:47;;;;;;;54.60;8.18;;;4.50;99.90;;;;;;4997407;28;20032;-75
2022/01/31 04:48:20;;;;;;;55.78;8.70;;;4.60;99.90;;;;;;5031906;28;20030;-76
2022/01/31 04:50:46;;;;;;;52.35;7.68;;;4.50;99.90;;;;;;5020601;28;20061;-76
2022/01/31 04:53:13;;;;;;;52.88;8.15;;;4.60;99.90;;;;;;5037679;28;20064;-77
2022/01/31 04:55:39;;;;;;;52.22;8.18;;;4.60;99.90;;;;;;5036936;28;20033;-77
2022/01/31 04:58:06;;;;;;;57.50;8.80;;;4.50;99.90;;;;;;5020099;28;20041;-77
2022/01/31 05:00:32;;;;;;;58.92;8.57;;;4.50;99.90;;;;;;5037611;28;20026;-74
2022/01/31 05:02:57;;;;;;;63.70;8.25;;;4.60;99.90;;;;;;5020262;28;20042;-76
2022/01/31 05:05:23;;;;;;;59.75;9.18;;;4.60;99.90;;;;;;5037311;28;20014;-76
2022/01/31 05:07:51;;;;;;;65.45;9.30;;;4.50;99.90;;;;;;5037515;28;20034;-76
2022/01/31 05:10:17;;;;;;;65.18;9.00;;;4.50;99.90;;;;;;5037541;28;20025;-77
2022/01/31 05:12:43;;;;;;;65.40;9.45;;;4.40;99.90;;;;;;5028256;28;20034;-77
2022/01/31 05:15:09;;;;;;;64.25;8.98;;;4.50;99.90;;;;;;4997172;28;20022;-76
2022/01/31 05:17:34;;;;;;;65.72;9.40;;;4.50;99.90;;;;;;4998325;28;20103;-76
2022/01/31 05:20:00;;;;;;;65.68;9.27;;;4.50;99.90;;;;;;5005907;28;20037;-76
2022/01/31 05:22:25;;;;;;;73.28;10.30;;;4.50;99.90;;;;;;5023526;28;20034;-76
2022/01/31 05:24:51;;;;;;;76.00;10.23;;;4.60;99.90;;;;;;5017647;28;20062;-75
2022/01/31 05:27:16;;;;;;;65.75;10.00;;;4.60;99.90;;;;;;5018019;28;20022;-77
2022/01/31 05:29:42;;;;;;;56.70;9.82;;;4.60;99.90;;;;;;5017808;28;20287;-76
2022/01/31 05:32:08;;;;;;;73.05;9.93;;;4.60;99.90;;;;;;5000816;28;20153;-75
2022/01/31 05:34:34;;;;;;;52.88;9.05;;;4.60;99.90;;;;;;5000739;28;20018;-76
2022/01/31 05:36:59;;;;;;;71.20;9.65;;;4.50;99.90;;;;;;5001017;28;20084;-76
2022/01/31 05:39:26;;;;;;;66.40;9.85;;;4.50;99.90;;;;;;5018794;28;20089;-76
2022/01/31 05:41:52;;;;;;;64.63;9.63;;;4.50;99.90;;;;;;5018009;28;20117;-78
2022/01/31 05:44:19;;;;;;;54.28;8.63;;;4.60;99.90;;;;;;5018567;28;20032;-76
2022/01/31 05:46:45;;;;;;;73.03;9.52;;;4.50;99.90;;;;;;5018034;28;20030;-77
2022/01/31 05:49:10;;;;;;;56.42;8.60;;;4.60;99.90;;;;;;5019535;28;20032;-78
2022/01/31 05:51:48;;;;;;;66.43;9.65;;;4.60;99.90;;;;;;5019105;28;20025;-78
2022/01/31 05:54:14;;;;;;;78.70;11.02;;;4.60;99.90;;;;;;5019896;28;20029;-77
2022/01/31 05:56:39;;;;;;;55.20;8.48;;;4.60;99.90;;;;;;5018850;28;20534;-76
2022/01/31 05:59:05;;;;;;;76.82;11.02;;;4.50;99.90;;;;;;5001389;28;20033;-76
2022/01/31 06:01:30;;;;;;;56.10;9.45;;;4.60;99.90;;;;;;5019923;28;20113;-76
2022/01/31 06:03:56;;;;;;;78.63;10.10;;;4.60;99.90;;;;;;5019729;28;20026;-77
2022/01/31 06:06:21;;;;;;;50.75;9.65;;;4.50;99.90;;;;;;5022930;28;20014;-77
2022/01/31 06:08:47;;;;;;;70.35;11.05;;;4.50;99.90;;;;;;5017493;28;20101;-76
2022/01/31 06:11:12;;;;;;;67.93;10.70;;;4.50;99.90;;;;;;5018202;28;20030;-76
2022/01/31 06:13:38;;;;;;;76.95;11.27;;;4.50;99.90;;;;;;5009310;28;20029;-76
2022/01/31 06:16:04;;;;;;;57.47;8.93;;;4.50;99.90;;;;;;5031232;28;20144;-76
2022/01/31 06:18:29;;;;;;;64.57;10.00;;;4.50;99.90;;;;;;5026308;28;20055;-77
2022/01/31 06:20:55;;;;;;;65.03;10.70;;;4.50;99.90;;;;;;5002499;28;20164;-77
2022/01/31 06:23:20;;;;;;;80.68;10.70;;;4.50;99.90;;;;;;5018632;28;20082;-77
2022/01/31 06:25:48;;;;;;;62.70;10.18;;;4.50;99.90;;;;;;5018083;28;20096;-76
2022/01/31 06:28:13;;;;;;;64.00;9.85;;;4.50;99.90;;;;;;5018295;28;20075;-77
2022/01/31 06:30:39;;;;;;;75.93;13.35;;;4.50;99.90;;;;;;5018859;28;20022;-78
2022/01/31 06:33:04;;;;;;;80.90;11.35;;;4.40;99.90;;;;;;4999372;28;20390;-77
2022/01/31 06:35:30;;;;;;;70.25;10.52;;;4.40;99.90;;;;;;4998453;28;20052;-78
2022/01/31 06:37:55;;;;;;;65.18;10.48;;;4.40;99.90;;;;;;5017099;28;20026;-76
2022/01/31 06:40:21;;;;;;;77.05;11.55;;;4.40;99.90;;;;;;5018778;28;20030;-77
2022/01/31 06:42:46;;;;;;;78.70;9.95;;;4.40;99.90;;;;;;4999487;28;20029;-77
2022/01/31 06:45:12;;;;;;;69.38;10.20;;;4.30;99.90;;;;;;4999311;28;20040;-76
2022/01/31 06:47:38;;;;;;;53.72;9.18;;;4.20;99.90;;;;;;5038713;23;20045;-74
2022/01/31 06:50:06;;;;;;;70.28;10.98;;;4.20;99.90;;;;;;5019485;28;20052;-73
2022/01/31 06:52:35;;;;;;;77.68;10.82;;;4.20;99.90;;;;;;5001673;28;20450;-73
2022/01/31 06:55:05;;;;;;;62.53;9.82;;;4.20;99.90;;;;;;5017699;28;20029;-73
2022/01/31 06:57:35;;;;;;;71.82;10.95;;;4.20;99.90;;;;;;5017570;28;20106;-74
2022/01/31 07:00:07;;;;;;;71.63;10.75;;;4.20;99.90;;;;;;5017040;28;20022;-72
2022/01/31 07:02:33;;;;;;;58.47;8.80;;;4.10;99.90;;;;;;4999395;28;20029;-73
2022/01/31 07:05:00;;;;;;;62.78;10.30;;;4.10;99.90;;;;;;5016184;28;20022;-73
2022/01/31 07:07:26;;;;;;;59.78;10.23;;;4.10;99.90;;;;;;5014904;28;20110;-74
2022/01/31 07:09:52;;;;;;;60.63;10.35;;;4.00;99.90;;;;;;4999242;28;20057;-74
2022/01/31 07:12:18;;;;;;;68.35;10.32;;;4.00;99.90;;;;;;5014703;28;20494;-75
2022/01/31 07:14:44;;;;;;;61.90;10.23;;;3.90;99.90;;;;;;5015223;28;20382;-74
2022/01/31 07:17:09;;;;;;;72.22;10.80;;;3.90;99.90;;;;;;5015732;28;20025;-74
2022/01/31 07:19:38;;;;;;;76.68;11.05;;;3.80;99.90;;;;;;5014926;28;20145;-74
2022/01/31 07:22:07;;;;;;;63.80;10.35;;;3.90;99.90;;;;;;5014690;28;20018;-72
2022/01/31 07:27:03;;;;;;;70.13;10.05;;;3.90;99.90;;;;;;5014225;28;20022;-73
2022/01/31 07:29:29;;;;;;;66.15;10.48;;;3.90;99.90;;;;;;5013652;28;20022;-74
2022/01/31 07:31:56;;;;;;;77.32;11.93;;;3.80;99.90;;;;;;4997983;28;20030;-75
2022/01/31 07:34:22;;;;;;;66.95;11.55;;;3.90;99.90;;;;;;4998397;28;20509;-72
2022/01/31 07:36:48;;;;;;;68.95;11.05;;;3.90;99.90;;;;;;5015599;28;20018;-74
2022/01/31 07:39:15;;;;;;;68.38;11.68;;;3.80;99.90;;;;;;4998832;28;20028;-75
2022/01/31 07:41:41;;;;;;;74.03;13.25;;;3.80;99.90;;;;;;5015629;28;20056;-72
2022/01/31 07:44:08;;;;;;;61.15;11.23;;;3.90;99.90;;;;;;5016788;28;20084;-72
2022/01/31 07:46:34;;;;;;;69.50;10.77;;;3.80;99.90;;;;;;5022032;28;20033;-73
2022/01/31 07:49:00;;;;;;;79.93;11.70;;;3.80;99.90;;;;;;5020705;28;20014;-75
2022/01/31 07:51:25;;;;;;;56.58;10.05;;;3.80;99.90;;;;;;5019948;28;20044;-74
2022/01/31 07:53:51;;;;;;;57.03;12.05;;;3.80;99.90;;;;;;5019722;28;20534;-73
2022/01/31 07:56:17;;;;;;;66.40;11.25;;;3.80;99.90;;;;;;5015908;28;20483;-74
2022/01/31 07:58:43;;;;;;;58.70;9.80;;;3.70;99.90;;;;;;4998750;28;20450;-74
2022/01/31 08:01:09;;;;;;;78.85;11.93;;;3.70;99.90;;;;;;5017268;28;20034;-73
2022/01/31 08:03:35;;;;;;;104.55;14.63;;;3.70;99.90;;;;;;5017435;28;20032;-74
2022/01/31 08:06:02;;;;;;;78.85;12.27;;;3.70;99.90;;;;;;5017579;28;20491;-74
2022/01/31 08:08:35;;;;;;;89.28;12.65;;;3.70;99.90;;;;;;5081173;28;20379;-75
2022/01/31 08:11:03;;;;;;;82.05;11.88;;;3.70;99.90;;;;;;5076138;28;20104;-73
2022/01/31 08:13:29;;;;;;;50.75;10.68;;;3.70;99.90;;;;;;5076084;28;20025;-74
2022/01/31 08:18:26;;;;;;;77.30;11.32;;;3.70;99.90;;;;;;5070599;28;20250;-71
2022/01/31 08:20:52;;;;;;;55.10;9.55;;;3.70;99.90;;;;;;5071129;28;20042;-72
2022/01/31 08:23:18;;;;;;;52.90;10.35;;;3.80;99.90;;;;;;5070692;28;20072;-72
2022/01/31 08:25:48;;;;;;;53.83;9.23;;;3.80;99.90;;;;;;5069642;28;20032;-73
2022/01/31 08:28:15;;;;;;;66.50;11.07;;;3.90;99.90;;;;;;5069477;28;20102;-73
2022/01/31 08:30:56;;;;;;;61.15;10.48;;;3.90;99.90;;;;;;5069956;28;20021;-72
2022/01/31 08:33:33;;;;;;;65.63;10.18;;;4.00;99.90;;;;;;5069616;28;20021;-76
2022/01/31 08:36:00;;;;;;;60.88;11.02;;;4.00;99.90;;;;;;5069571;28;20389;-74
2022/01/31 08:38:25;;;;;;;51.78;9.23;;;4.00;99.90;;;;;;5070739;28;20105;-72
2022/01/31 08:40:51;;;;;;;121.05;20.92;;;4.00;99.90;;;;;;5068915;28;20493;-74
2022/01/31 08:43:17;;;;;;;100.90;16.77;;;4.00;99.90;;;;;;5069053;28;20160;-72
2022/01/31 08:45:43;;;;;;;59.22;11.05;;;4.00;99.90;;;;;;5068503;28;20025;-73
2022/01/31 08:48:09;;;;;;;59.70;10.43;;;4.00;99.90;;;;;;5068979;28;20039;-75
2022/01/31 08:50:35;;;;;;;47.15;8.82;;;4.10;99.90;;;;;;5070801;28;20029;-74
2022/01/31 08:53:01;;;;;;;53.70;10.15;;;4.10;99.90;;;;;;5071357;28;20112;-73
2022/01/31 08:55:27;;;;;;;43.63;9.43;;;4.10;99.90;;;;;;5069068;28;20096;-73
2022/01/31 08:57:55;;;;;;;46.67;9.50;;;;;;;;;;5070615;28;20465;-72
2022/01/31 09:00:22;;;;;;;56.83;10.50;;;;;;;;;;5071812;28;20481;-72
2022/01/31 09:03:02;;;;;;;65.10;12.25;;;;;;;;;;5069836;28;20076;-74
2022/01/31 09:05:29;;;;;;;52.70;10.00;;;;;;;;;;5068383;28;20427;-73
2022/01/31 09:07:55;;;;;;;64.18;11.63;;;;;;;;;;5068914;28;20090;-73
2022/01/31 09:10:21;;;;;;;55.22;11.13;;;;;;;;;;5068756;28;20104;-72
2022/01/31 09:12:47;;;;;;;47.40;9.95;;;;;;;;;;5068942;28;20538;-73
2022/01/31 09:15:13;;;;;;;66.28;10.75;;;;;;;;;;5068922;28;20406;-75
2022/01/31 09:17:40;;;;;;;46.03;10.23;;;;;;;;;;5070186;28;20025;-75
2022/01/31 09:20:07;;;;;;;45.15;10.27;;;;;;;;;;5060136;28;20477;-73
2022/01/31 09:22:33;;;;;;;55.05;11.30;;;;;;;;;;5055961;28;20052;-73
2022/01/31 09:24:59;;;;;;;60.75;11.85;;;;;;;;;;5054381;28;20074;-74
2022/01/31 09:27:27;;;;;;;58.63;11.02;;;;;;;;;;5054193;28;20478;-75
2022/01/31 09:29:53;;;;;;;82.38;22.05;;;;;;;;;;5056031;28;20013;-74
2022/01/31 09:32:22;;;;;;;51.05;11.35;;;;;;;;;;5056312;28;20025;-72
2022/01/31 09:34:48;;;;;;;50.35;11.23;;;;;;;;;;5056221;28;20143;-74
2022/01/31 09:37:14;;;;;;;49.15;11.68;;;;;;;;;;5055102;28;20508;-72
2022/01/31 09:39:43;;;;;;;53.25;11.32;;;;;;;;;;5055203;28;20025;-72
2022/01/31 09:42:12;;;;;;;53.38;10.38;;;;;;;;;;5056124;28;20021;-72
2022/01/31 09:44:47;;;;;;;48.33;10.45;;;;;;;;;;5055828;28;20021;-72
2022/01/31 09:47:24;;;;;;;57.03;11.75;;;;;;;;;;5055262;28;20036;-74
2022/01/31 09:49:50;;;;;;;52.90;10.70;;;;;;;;;;5055916;28;20473;-73
2022/01/31 09:52:16;;;;;;;48.30;10.38;;;;;;;;;;5057162;28;20028;-72
2022/01/31 09:54:43;;;;;;;47.17;10.65;;;;;;;;;;5060184;28;20021;-71
2022/01/31 09:57:09;;;;;;;56.42;10.13;;;;;;;;;;5058547;28;20024;-73
2022/01/31 09:59:35;;;;;;;42.90;10.60;;;;;;;;;;5059087;28;20032;-74
2022/01/31 10:02:08;;;;;;;56.45;10.65;;;;;;;;;;5057543;28;20032;-72
2022/01/31 10:04:36;;;;;;;53.00;10.40;;;;;;;;;;5058032;28;20029;-74
2022/01/31 10:07:02;;;;;;;46.70;10.18;;;;;;;;;;5056501;28;20029;-71
2022/01/31 10:09:32;;;;;;;50.50;10.85;;;;;;;;;;5056359;28;20016;-71
2022/01/31 10:12:08;;;;;;;43.38;9.60;;;;;;;;;;5057942;28;20021;-75
2022/01/31 10:17:26;;;;;;;39.47;10.93;;;;;;;;;;5059104;28;20039;-76
2022/01/31 10:19:55;;;;;;;48.92;11.63;;;;;;;;;;5055705;28;20029;-74
2022/01/31 10:22:21;;;;;;;46.42;10.90;;;;;;;;;;5057209;28;20021;-72
2022/01/31 10:24:48;;;;;;;33.78;10.90;;;;;;;;;;5054694;28;20219;-74
2022/01/31 10:27:14;;;;;;;45.70;11.23;;;;;;;;;;5054172;28;20079;-75
2022/01/31 10:29:41;;;;;;;38.90;11.25;;;;;;;;;;5052604;28;20033;-73
2022/01/31 10:32:07;;;;;;;35.17;9.57;;;;;;;;;;5053592;28;20021;-73
2022/01/31 10:34:54;;;;;;;34.25;10.57;;;;;;;;;;5053983;28;20024;-73
2022/01/31 10:37:22;;;;;;;36.45;10.50;;;;;;;;;;5053594;28;20033;-71
2022/01/31 10:46:33;;;;;;;47.47;11.55;;;;;;;;;;5053248;28;20036;-73
2022/01/31 10:53:41;;;;;;;44.55;11.98;;;;;;;;;;5053480;28;20043;-75
2022/01/31 10:56:07;;;;;;;44.10;11.85;;;4.20;99.90;;;;;;5052048;28;20501;-73
2022/01/31 10:58:33;;;;;;;45.03;12.27;;;5.20;99.90;;;;;;5053300;28;20101;-73
2022/01/31 11:01:16;;;;;;;51.50;11.45;;;5.20;99.90;;;;;;5053396;28;20470;-76
2022/01/31 11:03:45;;;;;;;53.95;12.48;;;5.20;99.90;;;;;;5054172;28;20020;-75
2022/01/31 11:06:10;;;;;;;41.00;10.40;;;5.20;99.90;;;;;;5052474;28;20017;-76
2022/01/31 11:08:36;;;;;;;36.40;11.50;;;5.10;99.90;;;;;;5052789;28;20032;-75
2022/01/31 11:11:03;;;;;;;57.40;11.65;;;5.20;99.90;;;;;;5053591;28;20017;-74
2022/01/31 11:13:32;;;;;;;43.50;11.13;;;5.20;99.90;;;;;;5052992;28;20036;-74
2022/01/31 11:15:58;;;;;;;81.45;14.18;;;5.20;99.90;;;;;;5055511;28;20021;-74
2022/01/31 11:18:30;;;;;;;90.10;12.95;;;5.20;99.90;;;;;;5064024;28;20044;-75
2022/01/31 11:20:59;;;;;;;59.17;11.40;;;5.20;99.90;;;;;;5053382;28;20049;-74
2022/01/31 11:23:27;;;;;;;35.30;10.20;;;5.20;99.90;;;;;;5054958;28;20032;-73
2022/01/31 11:25:56;;;;;;;35.13;8.55;;;5.20;99.90;;;;;;5052494;28;20095;-73
2022/01/31 11:28:23;;;;;;;28.15;7.53;;;5.20;99.90;;;;;;5052609;28;20066;-72
2022/01/31 11:30:49;;;;;;;41.15;8.43;;;5.20;99.90;;;;;;5054878;28;20028;-74
2022/01/31 11:33:17;;;;;;;49.25;9.82;;;5.10;99.90;;;;;;5055458;28;20033;-74
2022/01/31 11:35:42;;;;;;;30.35;7.80;;;5.10;99.90;;;;;;5055773;28;20029;-73
2022/01/31 11:38:08;;;;;;;29.70;8.10;;;5.10;99.90;;;;;;5059697;28;20025;-74
2022/01/31 11:40:34;;;;;;;33.72;8.60;;;5.10;99.90;;;;;;5064497;28;20029;-73
2022/01/31 11:43:02;;;;;;;26.45;7.70;;;5.10;99.90;;;;;;5066837;28;20040;-73
2022/01/31 11:45:30;;;;;;;28.58;7.43;;;5.10;99.90;;;;;;5065086;28;20056;-74
2022/01/31 11:47:57;;;;;;;26.15;7.38;;;5.00;99.90;;;;;;5059525;28;20474;-74
2022/01/31 11:50:24;;;;;;;27.40;6.55;;;5.00;99.90;;;;;;5055591;28;20032;-74
2022/01/31 11:52:55;;;;;;;22.00;6.57;;;5.10;99.90;;;;;;5056663;28;20021;-77
2022/01/31 11:55:38;;;;;;;20.55;6.03;;;5.10;99.90;;;;;;5057444;28;20091;-74
2022/01/31 11:58:08;;;;;;;28.23;7.75;;;5.20;99.90;;;;;;5058437;28;20036;-75
2022/01/31 12:00:40;;;;;;;25.48;6.93;;;5.20;99.90;;;;;;5053351;28;20028;-74
2022/01/31 12:03:09;;;;;;;28.13;7.18;;;5.30;99.90;;;;;;5053190;28;20139;-75
2022/01/31 12:05:36;;;;;;;27.35;7.43;;;5.30;99.90;;;;;;5050470;28;20025;-74
2022/01/31 12:08:18;;;;;;;18.75;6.18;;;5.30;99.90;;;;;;5053225;28;20029;-75
2022/01/31 12:11:08;;;;;;;19.23;6.30;;;5.30;99.90;;;;;;5056863;28;20096;-75
2022/01/31 12:13:43;;;;;;;22.17;6.30;;;5.30;99.90;;;;;;5052656;28;20024;-75
2022/01/31 12:22:00;;;;;;;17.98;5.85;;;5.20;99.90;;;;;;5053105;28;20033;-73
2022/01/31 12:24:42;;;;;;;22.95;6.78;;;5.10;99.90;;;;;;5053157;28;20094;-76
2022/01/31 12:27:17;;;;;;;16.73;6.22;;;5.20;99.90;;;;;;5052733;28;20029;-75
2022/01/31 12:29:46;;;;;;;24.92;8.70;;;5.30;99.90;;;;;;5053825;28;20067;-75
2022/01/31 12:32:16;;;;;;;21.30;7.22;;;5.30;99.90;;;;;;5054191;28;20022;-74
2022/01/31 12:34:53;;;;;;;14.48;5.78;;;5.40;99.90;;;;;;5054288;28;20025;-74
2022/01/31 12:37:25;;;;;;;14.48;5.97;;;5.50;99.90;;;;;;5052476;28;20017;-73
2022/01/31 12:40:04;;;;;;;17.83;6.18;;;5.50;99.90;;;;;;5052261;28;20025;-75
2022/01/31 12:45:22;;;;;;;21.42;6.63;;;5.50;99.90;;;;;;5056446;28;20059;-73
2022/01/31 12:48:06;;;;;;;21.70;7.95;;;5.50;99.90;;;;;;5053317;28;20063;-75
2022/01/31 12:50:33;;;;;;;26.20;8.52;;;5.60;99.90;;;;;;5052587;28;20052;-74
2022/01/31 12:53:04;;;;;;;26.60;8.02;;;5.50;99.90;;;;;;5052550;28;20367;-74
2022/01/31 12:55:30;;;;;;;17.92;6.95;;;5.50;99.90;;;;;;5056588;28;20036;-73
2022/01/31 12:57:56;;;;;;;25.17;8.18;;;5.50;99.90;;;;;;5056417;28;20596;-75
2022/01/31 13:00:43;;;;;;;22.65;7.47;;;5.40;99.90;;;;;;5056544;28;20060;-75
2022/01/31 13:03:09;;;;;;;23.95;8.82;;;5.50;99.90;;;;;;5058179;28;20108;-75
2022/01/31 13:05:39;;;;;;;24.63;7.78;;;5.50;99.90;;;;;;5056292;28;20078;-77
2022/01/31 13:08:21;;;;;;;23.23;8.23;;;5.60;99.90;;;;;;5056589;28;20060;-75
2022/01/31 13:10:47;;;;;;;37.80;15.27;;;5.60;99.90;;;;;;5056913;28;20025;-74
2022/01/31 13:13:12;;;;;;;28.02;13.43;;;5.60;99.90;;;;;;5056968;28;20021;-73
2022/01/31 13:15:38;;;;;;;35.05;9.60;;;5.60;99.90;;;;;;5058052;28;20029;-75
2022/01/31 13:18:09;;;;;;;28.70;9.38;;;5.60;99.90;;;;;;5065666;28;20147;-75
2022/01/31 13:20:36;;;;;;;33.42;9.20;;;5.60;99.90;;;;;;5059179;28;20025;-73
2022/01/31 13:23:04;;;;;;;28.40;8.30;;;5.60;99.90;;;;;;5054367;28;20029;-74
2022/01/31 13:25:30;;;;;;;23.40;8.27;;;5.60;99.90;;;;;;5055668;28;20025;-75
2022/01/31 13:27:57;;;;;;;30.88;10.10;;;5.50;99.90;;;;;;5055250;28;20436;-74